Time;durP1;ratioP1;P1;durP2;ratioP2;P2;SDS_P1;SDS_P2;PMS_P1;PMS_P2;Temp;Humidity;BMP_temperature;BMP_pressure;BME280_temperature;BME280_humidity;BME280_pressure;Samples;Min_cycle;Max_cycle;Signal;HPM_P1;HPM_P2
2021/04/07 00:01:43;;;;;;;1.45;0.60;;;23.90;36.70;;;;;;5061832;28;20032;-67
2021/04/07 00:04:09;;;;;;;0.68;0.50;;;23.90;36.70;;;;;;5079972;28;20024;-66
2021/04/07 00:06:36;;;;;;;1.30;0.50;;;23.80;37.20;;;;;;5085442;28;20028;-69
2021/04/07 00:09:03;;;;;;;1.45;0.63;;;23.80;36.70;;;;;;5086661;28;20016;-67
2021/04/07 00:11:29;;;;;;;1.67;0.60;;;23.80;36.70;;;;;;5087742;28;20111;-68
2021/04/07 00:13:55;;;;;;;1.23;0.60;;;23.80;36.70;;;;;;5087694;28;20111;-66
2021/04/07 00:16:22;;;;;;;1.95;0.80;;;23.80;36.70;;;;;;5078235;28;20062;-65
2021/04/07 00:18:47;;;;;;;1.48;0.50;;;23.70;36.60;;;;;;5074718;28;20035;-70
2021/04/07 00:21:13;;;;;;;0.80;0.68;;;23.80;36.70;;;;;;5065686;28;20114;-66
2021/04/07 00:23:38;;;;;;;2.78;0.60;;;23.80;36.70;;;;;;5085490;28;20085;-69
2021/04/07 00:26:04;;;;;;;0.98;0.45;;;23.70;37.20;;;;;;5063603;28;20371;-68
2021/04/07 00:28:30;;;;;;;1.80;0.57;;;23.70;36.70;;;;;;5087305;28;20024;-67
2021/04/07 00:30:57;;;;;;;1.25;0.50;;;23.70;36.70;;;;;;5081319;28;20032;-66
2021/04/07 00:33:22;;;;;;;0.80;0.50;;;23.70;36.80;;;;;;5073213;28;20050;-66
2021/04/07 00:35:48;;;;;;;1.02;0.50;;;23.70;36.80;;;;;;5063079;28;20031;-68
2021/04/07 00:38:14;;;;;;;1.63;0.60;;;23.70;36.80;;;;;;5071467;28;20037;-68
2021/04/07 00:40:39;;;;;;;1.00;0.50;;;23.70;36.80;;;;;;5067640;28;20034;-70
2021/04/07 00:43:05;;;;;;;1.08;0.50;;;23.70;36.80;;;;;;5094232;28;20028;-66
2021/04/07 00:45:32;;;;;;;1.88;0.60;;;23.70;36.80;;;;;;5085058;28;20020;-69
2021/04/07 00:47:57;;;;;;;1.55;0.60;;;23.60;36.80;;;;;;5070107;28;20035;-66
2021/04/07 00:50:25;;;;;;;1.27;0.50;;;23.60;36.80;;;;;;5082856;28;20031;-69
2021/04/07 00:52:52;;;;;;;2.13;0.65;;;23.60;36.80;;;;;;5083353;28;20024;-66
2021/04/07 00:55:21;;;;;;;0.73;0.47;;;23.60;36.90;;;;;;5084813;28;20024;-65
2021/04/07 00:57:48;;;;;;;1.38;0.50;;;23.60;36.90;;;;;;5077538;28;20048;-67
2021/04/07 01:00:15;;;;;;;1.83;0.60;;;23.60;36.80;;;;;;5080006;28;20040;-68
2021/04/07 01:02:41;;;;;;;0.82;0.40;;;23.60;36.90;;;;;;5080958;28;20107;-68
2021/04/07 01:05:09;;;;;;;1.00;0.52;;;23.60;36.90;;;;;;5087161;28;20082;-66
2021/04/07 01:07:35;;;;;;;1.33;0.63;;;23.50;36.80;;;;;;5086552;28;20036;-67
2021/04/07 01:10:01;;;;;;;1.17;0.50;;;23.50;36.90;;;;;;5080337;28;20043;-67
2021/04/07 01:12:27;;;;;;;1.40;0.50;;;23.50;36.90;;;;;;5086403;28;20043;-67
2021/04/07 01:14:52;;;;;;;0.75;0.60;;;23.50;36.90;;;;;;5094999;28;20024;-67
2021/04/07 01:17:19;;;;;;;1.85;0.50;;;23.50;37.00;;;;;;5062699;28;20050;-68
2021/04/07 01:19:45;;;;;;;0.70;0.50;;;23.50;37.00;;;;;;5048300;28;20365;-67
2021/04/07 01:22:13;;;;;;;0.82;0.60;;;23.50;37.50;;;;;;5046025;28;20035;-67
2021/04/07 01:24:39;;;;;;;1.27;0.57;;;23.50;37.00;;;;;;5068864;28;20024;-67
2021/04/07 01:27:05;;;;;;;1.85;0.40;;;23.40;36.90;;;;;;5081386;28;20036;-68
2021/04/07 01:29:31;;;;;;;1.20;0.45;;;23.40;37.00;;;;;;5078689;28;20032;-68
2021/04/07 01:31:57;;;;;;;0.50;0.47;;;23.40;37.00;;;;;;5064419;28;20043;-65
2021/04/07 01:34:28;;;;;;;0.70;0.50;;;23.40;37.00;;;;;;5069623;28;20377;-65
2021/04/07 01:36:56;;;;;;;1.00;0.57;;;23.40;37.10;;;;;;5079616;28;20510;-66
2021/04/07 01:39:24;;;;;;;1.67;0.43;;;23.40;37.10;;;;;;5074037;28;20020;-65
2021/04/07 01:41:50;;;;;;;1.60;0.47;;;23.30;37.10;;;;;;5078272;28;20098;-66
2021/04/07 01:44:18;;;;;;;1.10;0.60;;;23.40;37.10;;;;;;5048683;28;20504;-66
2021/04/07 01:46:44;;;;;;;0.75;0.47;;;23.40;37.10;;;;;;5079858;28;20110;-68
2021/04/07 01:49:11;;;;;;;0.55;0.40;;;23.40;37.10;;;;;;5075937;28;20059;-67
2021/04/07 01:51:37;;;;;;;0.73;0.50;;;23.30;37.10;;;;;;5066659;28;20111;-68
2021/04/07 01:54:05;;;;;;;1.02;0.60;;;23.30;37.10;;;;;;5072876;28;20085;-67
2021/04/07 01:56:54;;;;;;;0.40;0.40;;;23.30;37.10;;;;;;5081344;28;20193;-67
2021/04/07 01:59:23;;;;;;;1.10;0.50;;;23.30;37.10;;;;;;5077290;28;20020;-65
2021/04/07 02:01:49;;;;;;;0.65;0.45;;;23.30;37.20;;;;;;5079652;28;20450;-67
2021/04/07 02:04:16;;;;;;;0.68;0.45;;;23.30;37.20;;;;;;5079888;28;20035;-67
2021/04/07 02:06:42;;;;;;;0.63;0.43;;;23.30;37.20;;;;;;5077307;28;20094;-66
2021/04/07 02:09:09;;;;;;;1.38;0.60;;;23.20;37.20;;;;;;5077792;28;20024;-66
2021/04/07 02:11:40;;;;;;;0.75;0.43;;;23.20;37.20;;;;;;5058674;28;20060;-69
2021/04/07 02:14:05;;;;;;;0.88;0.40;;;23.20;37.20;;;;;;5075660;28;20387;-66
2021/04/07 02:16:32;;;;;;;0.60;0.40;;;23.20;37.50;;;;;;5074986;28;20031;-69
2021/04/07 02:18:58;;;;;;;0.35;0.35;;;23.20;37.20;;;;;;5077838;28;20032;-65
2021/04/07 02:21:23;;;;;;;0.47;0.40;;;23.20;37.30;;;;;;5083528;28;20036;-67
2021/04/07 02:23:49;;;;;;;0.85;0.40;;;23.10;37.30;;;;;;5082861;28;20032;-66
2021/04/07 02:26:15;;;;;;;0.40;0.35;;;23.20;37.30;;;;;;5068312;28;20040;-69
2021/04/07 02:28:40;;;;;;;0.77;0.43;;;23.10;37.30;;;;;;5083590;28;20039;-67
2021/04/07 02:31:06;;;;;;;0.52;0.40;;;23.20;37.30;;;;;;5082542;28;20105;-67
2021/04/07 02:33:32;;;;;;;0.40;0.40;;;23.10;37.30;;;;;;5083747;28;20822;-66
2021/04/07 02:35:57;;;;;;;0.57;0.40;;;23.10;37.30;;;;;;5058384;28;20118;-65
2021/04/07 02:38:23;;;;;;;1.67;0.50;;;23.10;37.30;;;;;;5056125;28;20378;-68
2021/04/07 02:40:49;;;;;;;0.88;0.40;;;23.10;37.30;;;;;;5073734;28;20024;-66
2021/04/07 02:43:14;;;;;;;0.35;0.35;;;23.10;37.40;;;;;;5084765;28;20580;-66
2021/04/07 02:45:40;;;;;;;0.82;0.43;;;23.10;37.40;;;;;;5075545;28;20458;-66
2021/04/07 02:48:06;;;;;;;0.77;0.40;;;23.10;37.40;;;;;;5073629;28;20099;-66
2021/04/07 02:50:32;;;;;;;0.32;0.30;;;23.10;37.40;;;;;;5078721;28;20134;-67
2021/04/07 02:52:57;;;;;;;0.60;0.50;;;23.10;37.40;;;;;;5081713;28;20103;-68
2021/04/07 02:55:23;;;;;;;0.90;0.50;;;23.10;37.40;;;;;;5080372;28;20055;-64
2021/04/07 02:57:48;;;;;;;0.85;0.40;;;23.00;37.40;;;;;;5078813;28;20024;-66
2021/04/07 03:00:15;;;;;;;1.00;0.50;;;23.00;37.40;;;;;;5082981;28;20858;-70
2021/04/07 03:02:40;;;;;;;0.30;0.30;;;23.00;37.40;;;;;;5070509;28;20115;-67
2021/04/07 03:05:07;;;;;;;0.40;0.40;;;23.00;37.40;;;;;;5069411;28;20119;-66
2021/04/07 03:07:33;;;;;;;0.73;0.40;;;23.00;37.40;;;;;;5082810;28;20028;-66
2021/04/07 03:09:58;;;;;;;0.90;0.40;;;23.00;37.50;;;;;;5064190;28;20062;-67
2021/04/07 03:12:24;;;;;;;0.50;0.40;;;23.00;37.50;;;;;;5076572;28;20031;-66
2021/04/07 03:14:50;;;;;;;0.88;0.50;;;23.00;37.50;;;;;;5052636;28;20033;-67
2021/04/07 03:17:15;;;;;;;0.55;0.30;;;23.00;37.50;;;;;;5065308;28;20745;-67
2021/04/07 03:19:41;;;;;;;0.57;0.40;;;23.00;37.50;;;;;;5067919;28;20040;-66
2021/04/07 03:22:06;;;;;;;1.13;0.50;;;23.00;37.50;;;;;;5079544;28;20434;-70
2021/04/07 03:24:32;;;;;;;0.50;0.40;;;23.00;37.50;;;;;;5062446;28;20047;-65
2021/04/07 03:26:58;;;;;;;0.60;0.45;;;23.00;37.50;;;;;;5078065;28;20083;-67
2021/04/07 03:29:24;;;;;;;0.40;0.38;;;23.00;37.50;;;;;;5065563;28;20036;-64
2021/04/07 03:31:50;;;;;;;0.82;0.50;;;23.00;37.50;;;;;;5068591;28;20051;-66
2021/04/07 03:34:16;;;;;;;0.80;0.40;;;23.00;37.50;;;;;;5073252;28;20782;-66
2021/04/07 03:36:42;;;;;;;0.52;0.40;;;23.00;37.50;;;;;;5063712;28;20031;-65
2021/04/07 03:39:07;;;;;;;0.80;0.30;;;23.00;37.50;;;;;;5077262;28;20078;-65
2021/04/07 03:41:33;;;;;;;0.85;0.45;;;23.00;37.50;;;;;;5074412;28;20032;-69
2021/04/07 03:43:58;;;;;;;1.25;0.50;;;23.00;37.60;;;;;;5069571;28;20127;-66
2021/04/07 03:46:24;;;;;;;0.50;0.40;;;22.90;37.50;;;;;;5074767;28;20028;-66
2021/04/07 03:48:49;;;;;;;0.90;0.50;;;22.90;38.10;;;;;;5068890;28;20103;-66
2021/04/07 03:51:15;;;;;;;0.30;0.30;;;22.90;37.50;;;;;;5082600;28;20032;-65
2021/04/07 03:53:41;;;;;;;0.68;0.50;;;22.90;37.60;;;;;;5074959;28;20035;-64
2021/04/07 03:56:07;;;;;;;0.63;0.40;;;22.90;37.60;;;;;;5075261;28;20027;-66
2021/04/07 03:58:32;;;;;;;0.40;0.40;;;22.90;37.60;;;;;;5071399;28;20039;-67
2021/04/07 04:01:00;;;;;;;0.30;0.30;;;22.90;37.60;;;;;;5080145;28;20123;-68
2021/04/07 04:03:25;;;;;;;0.75;0.40;;;22.90;37.60;;;;;;5066684;28;20497;-67
2021/04/07 04:05:51;;;;;;;0.70;0.43;;;22.90;38.10;;;;;;5080634;28;20103;-67
2021/04/07 04:08:18;;;;;;;0.70;0.50;;;22.90;37.60;;;;;;5054909;28;20028;-65
2021/04/07 04:10:43;;;;;;;0.40;0.40;;;22.90;37.60;;;;;;5050146;28;20035;-65
2021/04/07 04:13:09;;;;;;;0.40;0.40;;;22.90;37.60;;;;;;5066894;28;20543;-68
2021/04/07 04:15:35;;;;;;;0.30;0.30;;;22.90;37.60;;;;;;5069041;28;20073;-67
2021/04/07 04:18:01;;;;;;;0.60;0.40;;;22.90;37.60;;;;;;5050731;28;20364;-66
2021/04/07 04:20:27;;;;;;;0.30;0.30;;;22.90;37.60;;;;;;5079661;28;20471;-66
2021/04/07 04:22:53;;;;;;;1.55;0.40;;;22.90;37.60;;;;;;5078523;28;20036;-65
2021/04/07 04:25:22;;;;;;;0.50;0.40;;;22.90;37.60;;;;;;5053315;28;20040;-68
2021/04/07 04:27:51;;;;;;;0.55;0.40;;;22.90;38.10;;;;;;5065920;28;20082;-66
2021/04/07 04:30:18;;;;;;;0.43;0.40;;;22.90;37.60;;;;;;5048570;28;20516;-69
2021/04/07 04:32:44;;;;;;;0.73;0.40;;;22.90;37.60;;;;;;5077006;28;20130;-65
2021/04/07 04:35:11;;;;;;;0.95;0.40;;;22.90;37.60;;;;;;5081421;28;20103;-69
2021/04/07 04:37:37;;;;;;;0.90;0.40;;;22.90;37.60;;;;;;5074142;28;20020;-66
2021/04/07 04:40:04;;;;;;;0.30;0.30;;;22.90;37.60;;;;;;5072051;28;20036;-66
2021/04/07 04:42:29;;;;;;;0.65;0.40;;;22.90;37.60;;;;;;5077149;28;20093;-66
2021/04/07 04:44:55;;;;;;;0.63;0.35;;;22.90;37.60;;;;;;5060495;28;20032;-64
2021/04/07 04:47:21;;;;;;;0.38;0.38;;;22.90;37.60;;;;;;5073823;28;20031;-68
2021/04/07 04:49:46;;;;;;;0.55;0.50;;;22.90;37.60;;;;;;5067688;28;20111;-65
2021/04/07 04:52:12;;;;;;;0.30;0.28;;;22.90;37.60;;;;;;5066111;28;20058;-68
2021/04/07 04:54:38;;;;;;;0.90;0.40;;;22.90;37.60;;;;;;5076552;28;20033;-65
2021/04/07 04:57:03;;;;;;;0.55;0.32;;;22.90;37.60;;;;;;5077501;28;20479;-65
2021/04/07 04:59:29;;;;;;;0.50;0.50;;;22.90;37.60;;;;;;5080012;28;20537;-69
2021/04/07 05:01:54;;;;;;;0.40;0.30;;;22.90;37.60;;;;;;5077615;28;20036;-67
2021/04/07 05:04:20;;;;;;;1.55;0.40;;;22.90;37.60;;;;;;5080674;28;20119;-68
2021/04/07 05:06:46;;;;;;;0.57;0.40;;;22.90;38.20;;;;;;5073788;28;20078;-66
2021/04/07 05:09:11;;;;;;;1.08;0.50;;;22.90;37.60;;;;;;5082539;28;20075;-69
2021/04/07 05:11:37;;;;;;;0.25;0.25;;;22.90;37.60;;;;;;5087790;28;20030;-65
2021/04/07 05:14:04;;;;;;;0.40;0.30;;;22.90;37.60;;;;;;5063892;28;20027;-68
2021/04/07 05:16:32;;;;;;;0.40;0.40;;;22.80;37.60;;;;;;5083405;28;20035;-67
2021/04/07 05:18:58;;;;;;;0.63;0.35;;;22.90;37.60;;;;;;5069537;28;20111;-68
2021/04/07 05:21:24;;;;;;;0.57;0.40;;;22.90;37.60;;;;;;5084943;28;20040;-68
2021/04/07 05:23:49;;;;;;;0.75;0.40;;;22.80;37.60;;;;;;5076079;28;20039;-67
2021/04/07 05:26:15;;;;;;;1.20;0.52;;;22.90;37.60;;;;;;5085994;28;20047;-64
2021/04/07 05:28:42;;;;;;;0.50;0.38;;;22.90;37.70;;;;;;5069447;28;20033;-68
2021/04/07 05:31:08;;;;;;;0.45;0.40;;;22.90;37.70;;;;;;5071510;28;20044;-68
2021/04/07 05:33:36;;;;;;;0.40;0.40;;;22.80;37.60;;;;;;5080471;28;20055;-66
2021/04/07 05:36:05;;;;;;;0.65;0.40;;;22.80;37.60;;;;;;5080720;28;20040;-68
2021/04/07 05:38:30;;;;;;;0.60;0.40;;;22.80;37.70;;;;;;5074740;28;20677;-66
2021/04/07 05:40:58;;;;;;;0.45;0.32;;;22.80;37.70;;;;;;5064535;28;20047;-65
2021/04/07 05:43:25;;;;;;;0.50;0.40;;;22.80;37.70;;;;;;5084502;28;20134;-70
2021/04/07 05:45:51;;;;;;;0.93;0.50;;;22.80;37.70;;;;;;5076263;28;20048;-66
2021/04/07 05:48:17;;;;;;;0.38;0.38;;;22.80;37.70;;;;;;5069841;28;20453;-65
2021/04/07 05:50:45;;;;;;;2.65;0.32;;;22.80;37.70;;;;;;5066660;28;20557;-69
2021/04/07 05:53:11;;;;;;;0.63;0.40;;;22.80;37.70;;;;;;5082529;28;20505;-66
2021/04/07 05:55:38;;;;;;;2.35;0.80;;;22.80;37.70;;;;;;5067249;28;20059;-65
2021/04/07 05:58:06;;;;;;;0.50;0.50;;;22.80;37.70;;;;;;5082587;28;20036;-68
2021/04/07 06:00:32;;;;;;;0.40;0.40;;;22.90;37.70;;;;;;5085871;28;20352;-64
2021/04/07 06:03:00;;;;;;;0.40;0.40;;;22.80;37.70;;;;;;5078572;28;20514;-65
2021/04/07 06:05:28;;;;;;;0.45;0.38;;;22.80;37.70;;;;;;5084024;28;20028;-67
2021/04/07 06:07:58;;;;;;;0.87;0.50;;;22.80;37.70;;;;;;5084285;28;20387;-65
2021/04/07 06:10:24;;;;;;;;;;;22.80;37.70;;;;;;5066363;28;20035;-65
2021/04/07 06:12:51;;;;;;;0.38;0.38;;;22.80;37.70;;;;;;5074074;28;19912;-65
2021/04/07 06:15:17;;;;;;;0.90;0.50;;;22.80;37.70;;;;;;5085455;28;20854;-68
2021/04/07 06:17:52;;;;;;;0.40;0.40;;;22.80;37.70;;;;;;5073078;28;20106;-64
2021/04/07 06:20:18;;;;;;;0.88;0.40;;;22.80;37.70;;;;;;5081753;28;20039;-66
2021/04/07 06:22:43;;;;;;;0.50;0.40;;;22.80;37.70;;;;;;5085445;28;20032;-65
2021/04/07 06:25:09;;;;;;;0.50;0.40;;;22.80;37.70;;;;;;5085232;28;20176;-66
2021/04/07 06:27:35;;;;;;;0.95;0.50;;;22.80;37.70;;;;;;5076717;28;20064;-64
2021/04/07 06:30:01;;;;;;;0.40;0.40;;;22.80;37.70;;;;;;5064261;28;20032;-64
2021/04/07 06:32:28;;;;;;;0.85;0.52;;;22.80;37.70;;;;;;5070433;28;20968;-67
2021/04/07 06:34:53;;;;;;;0.57;0.40;;;22.80;37.70;;;;;;5081669;28;20024;-68
2021/04/07 06:37:19;;;;;;;0.73;0.60;;;22.80;37.70;;;;;;5082285;28;20085;-66
2021/04/07 06:39:45;;;;;;;0.80;0.50;;;22.80;37.70;;;;;;5081390;28;20119;-66
2021/04/07 06:42:10;;;;;;;0.70;0.40;;;22.80;37.70;;;;;;5081933;28;20113;-65
2021/04/07 06:44:36;;;;;;;0.50;0.40;;;22.80;37.80;;;;;;5082176;28;20183;-66
2021/04/07 06:47:04;;;;;;;1.10;0.50;;;22.80;37.70;;;;;;5077601;28;20032;-64
2021/04/07 06:49:32;;;;;;;0.95;0.50;;;22.80;37.70;;;;;;5066129;28;20050;-66
2021/04/07 06:52:00;;;;;;;0.60;0.50;;;22.80;37.70;;;;;;5080318;28;20024;-68
2021/04/07 06:54:27;;;;;;;0.65;0.40;;;22.80;37.70;;;;;;5080085;28;20035;-64
2021/04/07 06:56:54;;;;;;;0.63;0.43;;;22.80;37.70;;;;;;5073184;28;20028;-66
2021/04/07 06:59:20;;;;;;;0.90;0.45;;;22.80;37.70;;;;;;5072675;28;20469;-65
2021/04/07 07:01:46;;;;;;;1.20;0.40;;;22.80;37.70;;;;;;5070868;28;20162;-66
2021/04/07 07:04:11;;;;;;;0.50;0.40;;;22.80;37.70;;;;;;5065150;28;20402;-64
2021/04/07 07:06:37;;;;;;;2.08;0.57;;;22.80;37.60;;;;;;5078080;28;20396;-65
2021/04/07 07:09:18;;;;;;;0.43;0.43;;;22.90;37.70;;;;;;5073319;28;20102;-65
2021/04/07 07:11:53;;;;;;;0.68;0.50;;;22.80;37.60;;;;;;5079869;28;20027;-66
2021/04/07 07:14:20;;;;;;;0.35;0.30;;;22.80;37.60;;;;;;5060386;28;20032;-64
2021/04/07 07:16:50;;;;;;;1.05;0.60;;;22.80;37.60;;;;;;5073524;28;20047;-64
2021/04/07 07:19:25;;;;;;;0.77;0.50;;;22.80;37.60;;;;;;5068310;28;20032;-66
2021/04/07 07:21:56;;;;;;;0.77;0.47;;;22.80;37.60;;;;;;5077701;28;20036;-64
2021/04/07 07:24:29;;;;;;;1.65;0.50;;;22.80;37.60;;;;;;5074592;28;20056;-66
2021/04/07 07:26:55;;;;;;;0.75;0.50;;;22.80;37.60;;;;;;5075897;28;20059;-66
2021/04/07 07:29:26;;;;;;;0.40;0.40;;;22.80;37.60;;;;;;5081616;28;20051;-64
2021/04/07 07:32:10;;;;;;;1.00;0.50;;;22.80;37.60;;;;;;5064608;28;20448;-65
2021/04/07 07:34:37;;;;;;;1.05;0.60;;;22.80;37.60;;;;;;5064293;28;20191;-64
2021/04/07 07:37:05;;;;;;;0.75;0.40;;;22.80;37.60;;;;;;5075130;28;20147;-66
2021/04/07 07:39:34;;;;;;;1.33;0.60;;;22.80;37.60;;;;;;5068076;28;20031;-64
2021/04/07 07:42:02;;;;;;;0.57;0.55;;;22.80;37.60;;;;;;5048953;28;20052;-66
2021/04/07 07:44:31;;;;;;;0.68;0.60;;;22.80;37.60;;;;;;5071074;28;20024;-67
2021/04/07 07:47:03;;;;;;;1.30;0.70;;;22.80;37.60;;;;;;5079674;28;20039;-64
2021/04/07 07:49:29;;;;;;;1.58;0.70;;;22.80;37.60;;;;;;5066132;28;20105;-66
2021/04/07 07:51:55;;;;;;;1.63;0.70;;;22.80;37.50;;;;;;5060856;28;20086;-65
2021/04/07 07:54:22;;;;;;;1.50;0.80;;;22.80;37.50;;;;;;5063692;28;20028;-65
2021/04/07 07:56:51;;;;;;;1.55;0.60;;;22.80;37.50;;;;;;5068037;28;20103;-66
2021/04/07 07:59:26;;;;;;;;;;;22.80;37.50;;;;;;5082275;28;20043;-63
2021/04/07 08:01:51;;;;;;;1.42;0.70;;;22.80;37.50;;;;;;5083327;28;19923;-63
2021/04/07 08:04:18;;;;;;;1.40;0.70;;;22.80;37.50;;;;;;5064225;28;20032;-64
2021/04/07 08:06:45;;;;;;;1.20;0.80;;;22.80;37.50;;;;;;5057144;28;20039;-62
2021/04/07 08:09:11;;;;;;;2.25;0.70;;;22.80;37.50;;;;;;5061137;28;20044;-64
2021/04/07 08:11:40;;;;;;;1.20;0.80;;;22.80;37.50;;;;;;5063108;28;20029;-65
2021/04/07 08:14:06;;;;;;;0.93;0.65;;;22.80;37.50;;;;;;5074064;28;20032;-62
2021/04/07 08:16:33;;;;;;;0.85;0.57;;;22.80;37.50;;;;;;5072879;28;20036;-64
2021/04/07 08:18:59;;;;;;;1.08;0.70;;;22.80;37.50;;;;;;5074726;28;20070;-64
2021/04/07 08:21:25;;;;;;;1.15;0.60;;;22.80;37.50;;;;;;5082249;28;20032;-64
2021/04/07 08:23:57;;;;;;;2.22;0.60;;;22.80;37.50;;;;;;5065168;28;20028;-64
2021/04/07 08:26:26;;;;;;;1.08;0.73;;;22.80;37.50;;;;;;5082488;28;20043;-68
2021/04/07 08:28:53;;;;;;;1.33;0.60;;;22.80;37.50;;;;;;5080180;28;20484;-63
2021/04/07 08:31:19;;;;;;;1.48;0.80;;;22.80;37.50;;;;;;5066345;28;20510;-67
2021/04/07 08:33:51;;;;;;;2.40;0.90;;;22.80;37.50;;;;;;5080895;28;20435;-64
2021/04/07 08:36:25;;;;;;;2.05;0.77;;;22.80;37.50;;;;;;5085553;28;20032;-66
2021/04/07 08:39:05;;;;;;;1.02;0.70;;;22.80;37.50;;;;;;5074139;28;20785;-64
2021/04/07 08:41:32;;;;;;;1.10;0.70;;;22.80;37.50;;;;;;5081317;28;20137;-64
2021/04/07 08:44:00;;;;;;;1.23;0.80;;;22.80;37.50;;;;;;5064427;28;20020;-64
2021/04/07 08:46:28;;;;;;;1.63;0.80;;;22.80;37.50;;;;;;5063053;28;20066;-64
2021/04/07 08:48:55;;;;;;;1.52;0.80;;;22.80;37.60;;;;;;5086073;28;20028;-65
2021/04/07 08:51:31;;;;;;;1.42;0.80;;;22.80;37.50;;;;;;5062700;28;20474;-64
2021/04/07 08:53:57;;;;;;;1.80;0.90;;;22.80;37.50;;;;;;5086089;28;20481;-64
2021/04/07 08:56:29;;;;;;;1.58;0.70;;;22.80;37.50;;;;;;5065409;28;20032;-66
2021/04/07 08:58:57;;;;;;;1.30;0.80;;;22.80;37.60;;;;;;5067842;28;20043;-63
2021/04/07 09:01:35;;;;;;;1.42;0.80;;;22.80;37.60;;;;;;5074826;28;20704;-64
2021/04/07 09:04:14;;;;;;;2.20;1.02;;;22.80;37.60;;;;;;5083891;28;20107;-63
2021/04/07 09:06:56;;;;;;;;;;;22.80;37.60;;;;;;5080892;28;20032;-63
2021/04/07 09:09:23;;;;;;;1.90;0.95;;;22.80;37.60;;;;;;5065884;28;20014;-64
2021/04/07 09:11:50;;;;;;;3.60;0.98;;;22.80;37.60;;;;;;5051377;28;20143;-64
2021/04/07 09:14:16;;;;;;;1.80;1.00;;;22.80;37.60;;;;;;5086346;28;20024;-62
2021/04/07 09:16:43;;;;;;;1.92;1.10;;;22.80;37.60;;;;;;5082287;28;20024;-62
2021/04/07 09:19:19;;;;;;;2.25;0.90;;;22.80;37.60;;;;;;5064518;28;20021;-64
2021/04/07 09:22:04;;;;;;;1.98;1.00;;;22.80;37.70;;;;;;5077328;28;20027;-65
2021/04/07 09:24:36;;;;;;;2.92;1.10;;;22.80;37.70;;;;;;5067895;28;20063;-64
2021/04/07 09:27:02;;;;;;;1.77;0.93;;;22.80;37.70;;;;;;5062306;28;20060;-64
2021/04/07 09:29:28;;;;;;;1.55;0.98;;;22.80;37.70;;;;;;5085874;28;20032;-62
2021/04/07 09:31:54;;;;;;;2.15;1.10;;;22.80;37.70;;;;;;5079089;28;20075;-65
2021/04/07 09:34:20;;;;;;;2.38;0.98;;;22.80;37.70;;;;;;5083685;28;20020;-66
2021/04/07 09:36:49;;;;;;;1.40;0.90;;;22.80;37.70;;;;;;5081924;28;20034;-64
2021/04/07 09:39:23;;;;;;;1.95;1.00;;;22.80;37.70;;;;;;5074030;28;20056;-64
2021/04/07 09:41:50;;;;;;;2.13;1.10;;;22.80;37.70;;;;;;5082392;28;20032;-65
2021/04/07 09:44:17;;;;;;;1.50;0.93;;;22.80;37.70;;;;;;5083197;28;20611;-65
2021/04/07 09:46:56;;;;;;;1.13;0.85;;;22.80;37.70;;;;;;5062801;28;20028;-64
2021/04/07 09:49:24;;;;;;;2.13;1.00;;;22.80;37.70;;;;;;5070786;28;20091;-63
2021/04/07 09:51:50;;;;;;;1.98;1.00;;;22.80;37.70;;;;;;5067535;28;20028;-62
2021/04/07 09:54:24;;;;;;;2.10;1.00;;;22.80;37.80;;;;;;5084707;28;20034;-69
2021/04/07 09:56:56;;;;;;;2.15;1.20;;;22.80;37.80;;;;;;5081139;28;20099;-65
2021/04/07 09:59:39;;;;;;;1.67;0.90;;;22.80;37.80;;;;;;5084362;28;20430;-65
2021/04/07 10:02:07;;;;;;;1.70;0.90;;;22.80;37.80;;;;;;5085546;28;20040;-62
2021/04/07 10:04:36;;;;;;;1.75;1.00;;;22.80;37.80;;;;;;5084619;28;20043;-65
2021/04/07 10:07:09;;;;;;;1.90;1.20;;;22.80;37.80;;;;;;5083139;28;20035;-63
2021/04/07 10:09:34;;;;;;;3.10;0.85;;;22.80;37.80;;;;;;5058994;28;20024;-65
2021/04/07 10:12:00;;;;;;;1.23;0.90;;;22.80;37.80;;;;;;5086644;28;20028;-63
2021/04/07 10:14:26;;;;;;;2.53;1.10;;;22.80;37.80;;;;;;5086098;28;20128;-65
2021/04/07 10:16:52;;;;;;;1.85;1.00;;;22.80;37.80;;;;;;5080323;28;20111;-66
2021/04/07 10:19:18;;;;;;;2.45;0.90;;;22.80;37.80;;;;;;5085932;28;20478;-63
2021/04/07 10:21:44;;;;;;;2.35;1.00;;;22.80;37.80;;;;;;5068523;28;20032;-62
2021/04/07 10:24:15;;;;;;;2.13;0.90;;;22.80;37.80;;;;;;5072254;28;20489;-65
2021/04/07 10:26:43;;;;;;;2.08;0.90;;;22.80;37.80;;;;;;5069735;28;20446;-64
2021/04/07 10:29:19;;;;;;;1.65;1.00;;;22.80;37.80;;;;;;5071573;28;20427;-63
2021/04/07 10:31:51;;;;;;;1.92;0.90;;;22.80;37.80;;;;;;5085720;28;20801;-65
2021/04/07 10:34:17;;;;;;;1.40;0.90;;;22.80;37.70;;;;;;5052742;28;20055;-64
2021/04/07 10:36:45;;;;;;;1.33;0.95;;;22.80;37.80;;;;;;5077018;28;20032;-64
2021/04/07 10:39:16;;;;;;;1.85;0.90;;;22.80;37.70;;;;;;5075101;28;20063;-62
2021/04/07 10:41:46;;;;;;;0.93;0.80;;;22.80;37.80;;;;;;5084578;28;20028;-63
2021/04/07 10:44:24;;;;;;;2.42;1.08;;;22.80;37.70;;;;;;5085835;28;20099;-65
2021/04/07 10:46:50;;;;;;;1.80;0.90;;;22.80;37.70;;;;;;5074938;28;20032;-64
2021/04/07 10:49:16;;;;;;;2.28;1.00;;;22.80;37.70;;;;;;5071580;28;20102;-63
2021/04/07 10:51:43;;;;;;;1.80;1.10;;;22.80;37.70;;;;;;5077558;28;20036;-64
2021/04/07 10:54:10;;;;;;;1.95;0.90;;;22.80;37.70;;;;;;5066505;28;20111;-67
2021/04/07 10:56:38;;;;;;;1.30;0.90;;;22.80;37.60;;;;;;5081598;28;20202;-63
2021/04/07 10:59:12;;;;;;;1.52;1.00;;;22.80;37.60;;;;;;5072412;28;20028;-64
2021/04/07 11:01:38;;;;;;;1.98;0.98;;;22.80;37.60;;;;;;5071076;28;20036;-63
2021/04/07 11:04:14;;;;;;;1.65;0.90;;;22.80;37.60;;;;;;5068358;28;20032;-65
2021/04/07 11:06:40;;;;;;;1.10;0.80;;;22.80;37.60;;;;;;5090744;28;20035;-64
2021/04/07 11:09:06;;;;;;;1.67;1.02;;;22.80;37.50;;;;;;5083156;28;20031;-64
2021/04/07 11:11:33;;;;;;;3.15;1.00;;;22.80;37.50;;;;;;5062747;28;20024;-64
2021/04/07 11:13:59;;;;;;;2.63;1.05;;;22.80;37.50;;;;;;5080429;28;20089;-65
2021/04/07 11:16:34;;;;;;;1.98;1.00;;;22.80;37.50;;;;;;5054897;28;20196;-64
2021/04/07 11:19:00;;;;;;;1.60;0.85;;;22.80;37.50;;;;;;5065424;28;20548;-65
2021/04/07 11:21:27;;;;;;;1.48;0.93;;;22.80;37.50;;;;;;5077602;28;20037;-65
2021/04/07 11:23:53;;;;;;;1.35;1.08;;;22.80;37.40;;;;;;5083135;28;20062;-65
2021/04/07 11:26:19;;;;;;;2.10;1.10;;;22.80;37.40;;;;;;5069202;28;20064;-62
2021/04/07 11:28:45;;;;;;;1.85;0.95;;;22.80;37.40;;;;;;5055964;28;20032;-63
2021/04/07 11:31:19;;;;;;;1.80;1.10;;;22.80;37.40;;;;;;5100233;27;20047;-66
2021/04/07 11:33:53;;;;;;;1.73;0.88;;;22.80;37.40;;;;;;5092290;28;20031;-64
2021/04/07 11:41:49;;;;;;;1.60;0.85;;;22.80;37.30;;;;;;5085387;28;20021;-66
2021/04/07 11:46:40;;;;;;;2.25;0.90;;;22.80;37.30;;;;;;5082286;28;20071;-63
2021/04/07 11:49:06;;;;;;;1.63;0.88;;;22.80;37.40;;;;;;5075912;28;20390;-64
2021/04/07 11:51:37;;;;;;;1.42;0.80;;;22.80;37.30;;;;;;5082214;28;20075;-65
2021/04/07 11:54:03;;;;;;;1.83;0.90;;;22.80;37.40;;;;;;5082129;28;20130;-66
2021/04/07 11:56:29;;;;;;;1.75;1.00;;;22.80;37.30;;;;;;5071160;28;20032;-64
2021/04/07 11:58:55;;;;;;;1.73;0.80;;;22.80;37.30;;;;;;5063348;28;20466;-65
2021/04/07 12:01:21;;;;;;;1.67;0.90;;;22.80;37.30;;;;;;5084692;28;20040;-66
2021/04/07 12:03:47;;;;;;;1.83;0.95;;;22.80;37.40;;;;;;5086727;28;20028;-63
2021/04/07 12:06:12;;;;;;;1.55;0.88;;;22.80;37.30;;;;;;5068232;28;20094;-65
2021/04/07 12:08:38;;;;;;;2.17;0.90;;;22.80;37.40;;;;;;5075986;28;20024;-64
2021/04/07 12:11:04;;;;;;;1.42;1.00;;;22.80;37.40;;;;;;5075841;28;20128;-63
2021/04/07 12:13:30;;;;;;;1.80;0.93;;;22.80;37.30;;;;;;5084326;28;20383;-66
2021/04/07 12:15:56;;;;;;;1.15;0.80;;;22.80;37.40;;;;;;5077781;28;20056;-64
2021/04/07 12:18:22;;;;;;;1.02;0.90;;;22.80;37.30;;;;;;5090304;28;20037;-66
2021/04/07 12:20:48;;;;;;;1.13;0.70;;;22.80;37.30;;;;;;5098714;28;20036;-64
2021/04/07 12:23:13;;;;;;;1.52;0.82;;;22.80;37.30;;;;;;5082490;28;20032;-70
2021/04/07 12:25:39;;;;;;;2.58;1.00;;;22.80;37.40;;;;;;5084969;28;20035;-68
2021/04/07 12:28:06;;;;;;;1.17;0.70;;;22.80;37.40;;;;;;5081505;28;20566;-71
2021/04/07 12:30:46;;;;;;;2.10;0.90;;;22.80;37.50;;;;;;5079412;28;20109;-70
2021/04/07 12:33:12;;;;;;;1.15;1.02;;;22.80;37.50;;;;;;5082468;28;20065;-71
2021/04/07 12:36:04;;;;;;;1.98;0.80;;;22.80;37.50;;;;;;5081004;28;20104;-65
2021/04/07 12:38:31;;;;;;;1.95;0.90;;;22.80;37.60;;;;;;5082491;28;20031;-61
2021/04/07 12:40:59;;;;;;;1.25;0.70;;;22.80;37.80;;;;;;5084733;28;20032;-61
2021/04/07 12:43:26;;;;;;;1.58;0.90;;;22.80;37.80;;;;;;5075455;28;20363;-65
2021/04/07 12:45:52;;;;;;;2.08;1.00;;;22.90;37.80;;;;;;5082980;28;20103;-64
2021/04/07 12:48:19;;;;;;;1.73;0.90;;;23.00;37.90;;;;;;5081505;28;20033;-64
2021/04/07 12:50:46;;;;;;;1.88;0.88;;;23.00;37.80;;;;;;5064425;28;20039;-62
2021/04/07 12:53:11;;;;;;;1.80;0.90;;;23.00;37.80;;;;;;5094768;28;20078;-64
2021/04/07 12:55:37;;;;;;;1.35;0.82;;;23.00;37.80;;;;;;5084689;28;20024;-64
2021/04/07 12:58:04;;;;;;;1.92;0.93;;;23.00;37.70;;;;;;5077187;28;20071;-63